Time;durP1;ratioP1;P1;durP2;ratioP2;P2;SDS_P1;SDS_P2;PMS_P1;PMS_P2;Temp;Humidity;BMP_temperature;BMP_pressure;BME280_temperature;BME280_humidity;BME280_pressure;Samples;Min_cycle;Max_cycle;Signal;HPM_P1;HPM_P2
2022/03/10 00:03:37;;;;;;;3.17;1.27;;;19.50;45.10;;;;;;5030612;23;20063;-85
2022/03/10 00:06:02;;;;;;;3.30;1.45;;;19.40;45.00;;;;;;4951307;29;20043;-85
2022/03/10 00:08:28;;;;;;;3.30;1.50;;;19.40;45.00;;;;;;4952009;29;20051;-85
2022/03/10 00:10:56;;;;;;;3.42;1.50;;;19.40;45.00;;;;;;4934525;29;20495;-85
2022/03/10 00:13:22;;;;;;;5.25;1.50;;;19.20;44.90;;;;;;4933768;29;20035;-85
2022/03/10 00:15:47;;;;;;;3.78;1.65;;;19.40;45.10;;;;;;4937552;29;20101;-85
2022/03/10 00:18:13;;;;;;;6.20;1.73;;;19.40;45.10;;;;;;4938123;29;20039;-85
2022/03/10 00:27:00;;;;;;;3.80;1.80;;;19.80;45.30;;;;;;4954252;29;20045;-85
2022/03/10 00:29:56;;;;;;;3.70;1.45;;;19.90;45.90;;;;;;4955003;29;20058;-85
2022/03/10 00:32:22;;;;;;;5.07;1.80;;;18.90;44.80;;;;;;4955120;29;20090;-84
2022/03/10 00:35:03;;;;;;;3.58;1.65;;;20.80;46.70;;;;;;4931623;29;20067;-85
2022/03/10 00:41:31;;;;;;;4.60;1.60;;;18.80;44.70;;;;;;4954202;29;20053;-85
2022/03/10 00:44:19;;;;;;;3.53;1.52;;;19.10;44.90;;;;;;4937808;29;20449;-85
2022/03/10 00:54:26;;;;;;;4.18;1.52;;;18.90;44.80;;;;;;4954718;29;20089;-85
2022/03/10 00:56:51;;;;;;;3.58;1.45;;;20.90;46.00;;;;;;4936886;29;20134;-85
2022/03/10 00:59:17;;;;;;;3.33;1.48;;;20.60;46.70;;;;;;4954347;29;20126;-85
2022/03/10 01:02:07;;;;;;;3.35;1.52;;;20.20;46.20;;;;;;4937220;29;20058;-85
2022/03/10 01:15:03;;;;;;;5.10;1.85;;;20.00;45.40;;;;;;5148542;23;20051;-85
2022/03/10 01:17:32;;;;;;;3.00;1.33;;;19.20;45.00;;;;;;4936645;29;20078;-85
2022/03/10 01:20:00;;;;;;;4.28;1.75;;;19.20;45.00;;;;;;4936853;29;20050;-85
2022/03/10 01:22:29;;;;;;;2.40;1.27;;;19.20;45.10;;;;;;4937059;29;20122;-85
2022/03/10 01:24:55;;;;;;;4.05;1.58;;;20.30;45.60;;;;;;4936065;29;20058;-85
2022/03/10 01:27:20;;;;;;;4.72;2.05;;;19.10;45.00;;;;;;4936493;29;20051;-85
2022/03/10 01:33:55;;;;;;;3.80;1.65;;;18.40;44.60;;;;;;4953743;29;20038;-85
2022/03/10 01:41:15;;;;;;;3.13;1.60;;;18.30;44.60;;;;;;4953807;29;20058;-85
2022/03/10 01:51:04;;;;;;;3.92;1.55;;;18.60;44.70;;;;;;4953307;29;20058;-85
2022/03/10 01:53:30;;;;;;;3.50;1.80;;;18.70;44.90;;;;;;4920836;29;20051;-85
2022/03/10 01:56:05;;;;;;;4.35;1.85;;;18.80;45.00;;;;;;5091821;23;20055;-85
2022/03/10 01:59:12;;;;;;;3.03;1.63;;;17.40;44.30;;;;;;4916211;29;20055;-86
2022/03/10 02:02:44;;;;;;;4.20;1.90;;;18.10;44.40;;;;;;4933011;29;20047;-85
2022/03/10 02:05:40;;;;;;;3.95;1.75;;;18.10;44.50;;;;;;4840531;29;20061;-85
2022/03/10 02:11:01;;;;;;;4.35;1.95;;;19.40;45.30;;;;;;4840939;29;20065;-85
2022/03/10 02:13:32;;;;;;;4.90;1.58;;;18.00;44.60;;;;;;4848208;29;20541;-85
2022/03/10 02:19:30;;;;;;;3.55;1.60;;;20.20;45.70;;;;;;4932519;29;20407;-86
2022/03/10 02:22:17;;;;;;;4.05;1.80;;;19.30;45.10;;;;;;4841059;29;20049;-85
2022/03/10 02:24:54;;;;;;;3.83;1.70;;;19.30;45.10;;;;;;4841039;29;20057;-85
2022/03/10 02:27:27;;;;;;;3.65;1.90;;;17.60;44.40;;;;;;4903965;29;20060;-85
2022/03/10 02:30:19;;;;;;;3.72;1.73;;;20.40;45.70;;;;;;4934135;29;20653;-86
2022/03/10 02:32:45;;;;;;;4.38;2.10;;;20.40;46.00;;;;;;4932478;29;20051;-85
2022/03/10 02:35:16;;;;;;;3.85;1.65;;;20.30;45.70;;;;;;4931808;29;20070;-85
2022/03/10 02:37:52;;;;;;;4.78;2.10;;;17.70;44.50;;;;;;4931619;29;20044;-85
2022/03/10 02:40:43;;;;;;;3.60;1.70;;;20.50;45.80;;;;;;4931727;29;20080;-85
2022/03/10 02:43:50;;;;;;;3.63;1.75;;;19.00;44.90;;;;;;4932393;29;20415;-86
2022/03/10 02:46:24;;;;;;;6.47;1.90;;;19.40;45.10;;;;;;4933449;29;20103;-86
2022/03/10 02:51:29;;;;;;;4.13;1.90;;;18.90;45.60;;;;;;5004687;23;20095;-85
2022/03/10 02:53:57;;;;;;;3.60;1.63;;;18.90;44.90;;;;;;4935374;29;20051;-86
2022/03/10 02:56:23;;;;;;;3.17;1.67;;;18.90;44.90;;;;;;4951639;29;20105;-86
2022/03/10 02:58:48;;;;;;;4.40;2.05;;;18.90;44.90;;;;;;4919414;29;20047;-85
2022/03/10 03:01:14;;;;;;;3.63;1.65;;;18.90;44.90;;;;;;4935451;29;20062;-85
2022/03/10 03:03:39;;;;;;;3.55;1.30;;;18.90;44.90;;;;;;4934601;29;20562;-86
2022/03/10 03:06:05;;;;;;;3.85;1.80;;;18.90;44.90;;;;;;4935393;29;20055;-86
2022/03/10 03:08:30;;;;;;;3.13;1.70;;;18.80;44.80;;;;;;4934779;29;20146;-86
2022/03/10 03:10:59;;;;;;;4.15;1.50;;;18.80;44.80;;;;;;4935001;29;20055;-85
2022/03/10 03:13:45;;;;;;;3.88;1.63;;;19.10;45.00;;;;;;4952720;29;20052;-85
2022/03/10 03:16:11;;;;;;;3.85;1.98;;;19.20;45.10;;;;;;4934063;29;20059;-85
2022/03/10 03:18:36;;;;;;;3.53;1.65;;;18.80;44.80;;;;;;4952502;29;20147;-85
2022/03/10 03:21:02;;;;;;;3.53;1.75;;;19.00;44.90;;;;;;4952397;29;20035;-85
2022/03/10 03:23:27;;;;;;;3.78;1.50;;;19.30;45.10;;;;;;4934144;29;20107;-86
2022/03/10 03:25:53;;;;;;;3.35;1.58;;;18.80;44.80;;;;;;4952323;29;20058;-86
2022/03/10 03:28:21;;;;;;;2.97;1.35;;;18.80;44.80;;;;;;4935139;29;20054;-86
2022/03/10 03:30:50;;;;;;;3.50;1.42;;;18.80;44.80;;;;;;4951656;29;20043;-86
2022/03/10 03:33:15;;;;;;;3.72;1.50;;;18.80;44.80;;;;;;4952653;29;20055;-86
2022/03/10 03:35:41;;;;;;;2.80;1.50;;;18.80;44.80;;;;;;4935208;29;20055;-86
2022/03/10 03:38:07;;;;;;;3.28;1.60;;;18.80;44.80;;;;;;4951637;29;20048;-86
2022/03/10 03:40:35;;;;;;;4.38;1.90;;;18.80;44.90;;;;;;4952268;29;20543;-86
2022/03/10 03:43:01;;;;;;;3.13;1.70;;;20.10;45.50;;;;;;4935095;29;20051;-86
2022/03/10 03:45:27;;;;;;;4.20;1.90;;;18.70;44.70;;;;;;4934124;29;20550;-86
2022/03/10 03:47:53;;;;;;;2.88;1.52;;;18.70;44.80;;;;;;4935415;28;20503;-86
2022/03/10 03:50:22;;;;;;;4.40;1.80;;;18.70;44.70;;;;;;4955554;29;20055;-86
2022/03/10 03:52:47;;;;;;;3.65;1.73;;;19.90;45.40;;;;;;4937901;29;20056;-86
2022/03/10 03:55:13;;;;;;;2.97;1.52;;;19.90;45.40;;;;;;4938317;29;20384;-86
2022/03/10 03:57:39;;;;;;;3.17;1.63;;;18.70;44.70;;;;;;4955176;29;20056;-86
2022/03/10 04:00:06;;;;;;;2.70;1.60;;;18.70;44.70;;;;;;4938570;29;20058;-86
2022/03/10 04:02:34;;;;;;;3.15;1.63;;;18.70;44.70;;;;;;4938841;29;20407;-86
2022/03/10 04:05:06;;;;;;;3.55;1.60;;;18.70;44.70;;;;;;4937737;29;20051;-86
2022/03/10 04:07:32;;;;;;;3.90;1.80;;;18.70;44.70;;;;;;4938127;29;20495;-86
2022/03/10 04:09:57;;;;;;;4.18;1.80;;;19.20;45.10;;;;;;4955285;29;20058;-86
2022/03/10 04:12:23;;;;;;;3.97;1.80;;;18.80;44.80;;;;;;4937479;29;20055;-85
2022/03/10 04:14:48;;;;;;;3.60;1.52;;;18.70;44.70;;;;;;4954779;29;20087;-86
2022/03/10 04:17:14;;;;;;;3.30;1.60;;;18.70;44.70;;;;;;4938002;29;20047;-86
2022/03/10 04:19:42;;;;;;;3.92;1.80;;;18.70;44.70;;;;;;4937173;29;20051;-85
2022/03/10 04:22:08;;;;;;;3.15;1.60;;;18.70;44.80;;;;;;4937831;29;20051;-86
2022/03/10 04:25:03;;;;;;;3.13;1.63;;;18.70;44.80;;;;;;4937861;29;20392;-86
2022/03/10 04:27:35;;;;;;;4.15;1.80;;;18.00;44.30;;;;;;4937631;29;20043;-86
2022/03/10 04:30:05;;;;;;;4.00;1.60;;;19.70;45.30;;;;;;4937465;29;20054;-86
2022/03/10 04:32:52;;;;;;;3.92;1.70;;;18.70;45.20;;;;;;4937795;29;20130;-87
2022/03/10 04:35:30;;;;;;;3.78;1.60;;;17.90;44.30;;;;;;4955517;29;20051;-86
2022/03/10 04:41:31;;;;;;;3.72;1.60;;;18.70;44.70;;;;;;4875621;29;20071;-86
2022/03/10 04:44:06;;;;;;;3.55;1.88;;;18.60;45.00;;;;;;4860916;29;20060;-86
2022/03/10 04:54:47;;;;;;;3.85;1.70;;;18.30;44.60;;;;;;4952533;29;20464;-86
2022/03/10 04:57:28;;;;;;;2.42;1.17;;;18.10;44.30;;;;;;4936941;29;20054;-86
2022/03/10 05:00:18;;;;;;;3.67;1.80;;;18.90;45.00;;;;;;4936786;29;20063;-86
2022/03/10 05:03:03;;;;;;;3.25;1.65;;;18.50;45.10;;;;;;4924906;29;20555;-86
2022/03/10 05:05:32;;;;;;;3.10;1.50;;;19.60;45.30;;;;;;4937096;29;20051;-87
2022/03/10 05:08:06;;;;;;;3.42;1.42;;;19.50;45.70;;;;;;4936337;29;20050;-85
2022/03/10 05:10:32;;;;;;;4.28;1.73;;;18.30;44.50;;;;;;4937023;29;20455;-85
2022/03/10 05:13:01;;;;;;;3.78;1.75;;;19.90;46.10;;;;;;4954432;29;20050;-86
2022/03/10 05:15:28;;;;;;;3.08;1.27;;;18.60;44.60;;;;;;4935660;29;20507;-86
2022/03/10 05:17:54;;;;;;;3.65;1.70;;;18.60;44.60;;;;;;4954403;29;20399;-86
2022/03/10 05:20:19;;;;;;;4.10;1.42;;;18.50;44.60;;;;;;4936760;29;20050;-85
2022/03/10 05:22:47;;;;;;;3.97;1.88;;;19.40;45.00;;;;;;4936282;29;20051;-86
2022/03/10 05:25:16;;;;;;;3.58;1.50;;;18.50;44.60;;;;;;4937240;29;20062;-86
2022/03/10 05:27:45;;;;;;;3.05;1.70;;;18.50;44.60;;;;;;4936672;29;20039;-86
2022/03/10 05:30:14;;;;;;;3.42;1.77;;;18.50;44.60;;;;;;4953125;29;20495;-86
2022/03/10 05:32:40;;;;;;;3.97;1.70;;;18.50;44.60;;;;;;4936408;29;20051;-87
2022/03/10 05:35:06;;;;;;;3.17;1.50;;;18.50;44.60;;;;;;4936825;29;20114;-87
2022/03/10 05:37:33;;;;;;;2.45;1.45;;;18.50;44.60;;;;;;4935848;29;20046;-87
2022/03/10 05:39:59;;;;;;;3.33;1.55;;;18.50;44.60;;;;;;4920681;29;20511;-87
2022/03/10 05:42:25;;;;;;;3.58;1.40;;;18.50;44.60;;;;;;4936728;29;20130;-87
2022/03/10 05:44:50;;;;;;;3.40;1.70;;;18.50;44.60;;;;;;4953033;29;20106;-87
2022/03/10 05:47:16;;;;;;;2.95;1.50;;;18.50;44.60;;;;;;4936363;29;20137;-86
2022/03/10 05:49:41;;;;;;;3.40;1.40;;;18.50;44.60;;;;;;4936380;29;20412;-87
2022/03/10 05:52:07;;;;;;;2.45;1.30;;;18.60;44.60;;;;;;4935695;29;20051;-86
2022/03/10 05:54:36;;;;;;;3.42;1.42;;;18.50;44.60;;;;;;4936109;29;20055;-86
2022/03/10 05:57:02;;;;;;;2.70;1.30;;;19.30;45.00;;;;;;4953519;29;20514;-86
2022/03/10 05:59:36;;;;;;;3.80;1.67;;;18.50;44.60;;;;;;4935616;29;20043;-87
2022/03/10 06:02:02;;;;;;;3.35;1.50;;;18.20;44.40;;;;;;4936388;29;20047;-86
2022/03/10 06:04:27;;;;;;;3.00;1.40;;;18.40;44.50;;;;;;4952950;29;20082;-87
2022/03/10 06:07:00;;;;;;;3.10;1.50;;;18.40;44.50;;;;;;4936015;29;20047;-87
2022/03/10 06:09:25;;;;;;;;;;;19.00;44.80;;;;;;4953957;29;20047;-86
2022/03/10 06:11:51;;;;;;;2.70;1.42;;;18.40;44.50;;;;;;4934524;29;20497;-87
2022/03/10 06:14:17;;;;;;;4.05;1.98;;;18.40;44.50;;;;;;4935937;29;20552;-87
2022/03/10 06:16:43;;;;;;;2.90;1.40;;;18.40;44.50;;;;;;4935974;29;20043;-87
2022/03/10 06:19:09;;;;;;;3.20;1.63;;;18.40;44.50;;;;;;4934996;29;20126;-87
2022/03/10 06:21:35;;;;;;;4.07;1.83;;;18.40;44.50;;;;;;4935693;29;20145;-87
2022/03/10 06:24:01;;;;;;;3.53;1.83;;;18.40;44.50;;;;;;4936016;29;20051;-86
2022/03/10 06:26:26;;;;;;;2.95;1.50;;;18.40;44.50;;;;;;4952529;29;20055;-87
2022/03/10 06:28:52;;;;;;;3.42;1.50;;;18.40;44.50;;;;;;4935630;29;20135;-87
2022/03/10 06:31:19;;;;;;;3.28;1.50;;;18.40;44.50;;;;;;4927293;29;20055;-86
2022/03/10 06:33:47;;;;;;;2.80;1.40;;;18.40;44.50;;;;;;4938179;29;20495;-86
2022/03/10 06:36:13;;;;;;;3.33;1.40;;;18.40;44.50;;;;;;4935167;29;20050;-86
2022/03/10 06:38:38;;;;;;;3.60;1.50;;;18.40;45.20;;;;;;4922055;29;20496;-86
2022/03/10 06:41:04;;;;;;;3.20;1.52;;;18.40;44.60;;;;;;4933585;29;20048;-86
2022/03/10 06:43:29;;;;;;;3.33;1.58;;;18.40;44.60;;;;;;4918631;29;20082;-86
2022/03/10 06:45:55;;;;;;;7.90;1.67;;;18.40;44.50;;;;;;4933856;29;20106;-87
2022/03/10 06:48:20;;;;;;;3.17;1.70;;;18.40;44.50;;;;;;4934608;29;20079;-87
2022/03/10 06:50:46;;;;;;;2.70;1.50;;;19.80;45.30;;;;;;4929318;29;20054;-87
2022/03/10 06:53:13;;;;;;;2.80;1.55;;;18.40;44.60;;;;;;4927017;29;20052;-87
2022/03/10 06:55:38;;;;;;;3.08;1.50;;;18.40;44.50;;;;;;4930367;29;20110;-87
2022/03/10 06:58:04;;;;;;;3.17;1.67;;;18.40;44.50;;;;;;4935128;29;20051;-87
2022/03/10 07:00:30;;;;;;;3.67;1.70;;;18.40;44.50;;;;;;4934361;29;20049;-86
2022/03/10 07:02:56;;;;;;;2.65;1.40;;;19.50;45.10;;;;;;4935138;29;20087;-87
2022/03/10 07:05:23;;;;;;;2.58;1.30;;;18.40;44.50;;;;;;4935225;29;20075;-87
2022/03/10 07:07:49;;;;;;;3.40;1.52;;;18.30;44.40;;;;;;4934668;29;20570;-87
2022/03/10 07:10:17;;;;;;;3.30;1.58;;;18.30;44.40;;;;;;4934797;29;20047;-87
2022/03/10 07:12:45;;;;;;;2.15;1.20;;;18.40;44.50;;;;;;5089194;23;20055;-87
2022/03/10 07:15:11;;;;;;;3.17;1.45;;;18.20;44.60;;;;;;4934453;29;20447;-87
2022/03/10 07:17:38;;;;;;;2.45;1.25;;;18.00;44.40;;;;;;4952273;29;20118;-87
2022/03/10 07:20:26;;;;;;;2.88;1.52;;;19.90;45.30;;;;;;4916119;29;20124;-87
2022/03/10 07:22:55;;;;;;;3.03;1.50;;;17.10;43.80;;;;;;4918546;29;20040;-86
2022/03/10 07:25:29;;;;;;;3.10;1.40;;;17.90;44.50;;;;;;4930848;29;20079;-87
2022/03/10 07:28:04;;;;;;;2.85;1.30;;;19.20;45.10;;;;;;4957060;29;20066;-91
2022/03/10 07:30:48;;;;;;;2.78;1.52;;;18.00;44.30;;;;;;4940274;29;20151;-90
2022/03/10 07:33:57;;;;;;;3.53;1.80;;;18.20;44.40;;;;;;4957185;29;20050;-89
2022/03/10 07:41:02;;;;;;;;;;;;;;;;;;;;;
2022/03/10 07:43:59;;;;;;;3.30;1.40;;;19.70;45.30;;;;;;4931713;29;20059;-88
2022/03/10 07:46:56;;;;;;;;;;;;;;;;;;;;;
2022/03/10 07:53:24;;;;;;;3.10;1.50;;;18.40;44.50;;;;;;4856872;29;20135;-87
2022/03/10 07:56:21;;;;;;;3.05;1.50;;;18.70;45.20;;;;;;4918394;29;20492;-88
2022/03/10 07:58:46;;;;;;;3.85;1.80;;;18.20;44.40;;;;;;4916909;29;20044;-87
2022/03/10 08:01:18;;;;;;;2.75;1.38;;;18.40;45.50;;;;;;4946060;29;20086;-87
2022/03/10 08:05:12;;;;;;;;;;;;;;;;;;;;;
2022/03/10 08:07:44;;;;;;;2.97;1.58;;;18.40;44.60;;;;;;4840198;29;20057;-87
2022/03/10 08:10:25;;;;;;;3.40;1.42;;;18.40;44.70;;;;;;4852269;29;20437;-87
2022/03/10 08:12:50;;;;;;;2.92;1.48;;;18.20;45.10;;;;;;4946625;29;20048;-88
2022/03/10 08:16:17;;;;;;;3.40;1.80;;;17.50;44.40;;;;;;4937195;29;20493;-89
2022/03/10 08:19:23;;;;;;;3.05;1.60;;;17.50;44.10;;;;;;4920356;29;20058;-87
2022/03/10 08:25:06;;;;;;;4.50;1.30;;;19.20;45.50;;;;;;4942322;29;20087;-87
2022/03/10 08:27:34;;;;;;;3.05;1.60;;;18.30;44.60;;;;;;4937311;29;20082;-86
2022/03/10 08:30:50;;;;;;;3.25;1.55;;;18.60;45.20;;;;;;4954993;29;20051;-87
2022/03/10 08:33:44;;;;;;;3.60;1.60;;;16.80;43.80;;;;;;4838019;29;20061;-86
2022/03/10 08:36:13;;;;;;;3.22;1.50;;;18.60;44.70;;;;;;4837053;29;20091;-89
2022/03/10 08:38:42;;;;;;;2.60;1.45;;;16.60;43.80;;;;;;4814879;29;20054;-88
2022/03/10 08:41:08;;;;;;;3.63;1.30;;;18.40;45.50;;;;;;4806322;29;20062;-88
2022/03/10 08:43:37;;;;;;;3.60;1.65;;;18.80;44.80;;;;;;4814929;29;21041;-87
2022/03/10 08:46:44;;;;;;;4.55;2.20;;;16.50;43.70;;;;;;4818539;29;20057;-84
2022/03/10 08:59:51;;;;;;;4.78;1.90;;;18.50;44.50;;;;;;5333059;23;20119;-89
2022/03/10 09:02:29;;;;;;;4.75;2.63;;;18.40;44.70;;;;;;4918160;29;20095;-87
2022/03/10 09:04:54;;;;;;;10.52;3.72;;;18.40;44.80;;;;;;4917957;29;20130;-88
2022/03/10 09:07:23;;;;;;;6.65;3.45;;;18.20;44.20;;;;;;4917856;29;20136;-87
2022/03/10 09:13:55;;;;;;;8.02;3.70;;;17.60;43.60;;;;;;4857788;29;20085;-88
2022/03/10 09:20:07;;;;;;;6.43;3.10;;;18.90;44.10;;;;;;4876658;29;20052;-88
2022/03/10 09:22:33;;;;;;;6.35;3.42;;;18.60;44.00;;;;;;4860203;29;20060;-87
2022/03/10 09:25:17;;;;;;;6.45;3.22;;;19.10;44.20;;;;;;4876608;29;20498;-91
2022/03/10 09:27:55;;;;;;;7.82;3.58;;;17.60;43.30;;;;;;4860854;29;20113;-88
2022/03/10 09:30:30;;;;;;;5.50;3.00;;;18.70;44.40;;;;;;4859341;29;20417;-88
2022/03/10 09:32:59;;;;;;;6.35;3.33;;;18.70;44.00;;;;;;4875773;29;20053;-88
2022/03/10 09:35:27;;;;;;;7.13;3.35;;;18.60;44.00;;;;;;4869313;29;20119;-88
2022/03/10 09:38:11;;;;;;;5.45;3.10;;;19.90;44.70;;;;;;4850254;29;20057;-88
2022/03/10 09:40:53;;;;;;;6.63;3.08;;;19.80;44.60;;;;;;4849193;29;20041;-88
2022/03/10 09:43:36;;;;;;;5.07;2.80;;;18.90;44.30;;;;;;4847046;29;20675;-88
2022/03/10 09:46:05;;;;;;;6.88;2.95;;;18.60;43.80;;;;;;4882900;29;20055;-87
2022/03/10 09:48:37;;;;;;;8.52;3.03;;;18.70;43.70;;;;;;4930340;29;20118;-87
2022/03/10 09:51:19;;;;;;;8.48;3.55;;;18.70;44.10;;;;;;4933290;29;20135;-89
2022/03/10 10:07:58;;;;;;;7.18;3.30;;;18.20;43.00;;;;;;5504959;23;20427;-88
2022/03/10 10:11:15;;;;;;;11.25;3.65;;;18.80;43.50;;;;;;4935312;29;20146;-85
2022/03/10 10:13:47;;;;;;;6.20;3.45;;;18.80;43.40;;;;;;4870867;29;20057;-85
2022/03/10 10:19:16;;;;;;;9.38;5.10;;;18.80;43.20;;;;;;5587515;23;20047;-81
2022/03/10 10:22:24;;;;;;;11.07;5.72;;;18.80;43.10;;;;;;5114220;23;20083;-81
2022/03/10 10:25:33;;;;;;;10.48;5.55;;;18.90;42.80;;;;;;4928559;29;20542;-82
2022/03/10 10:28:21;;;;;;;10.23;4.43;;;18.70;42.90;;;;;;4932074;29;20047;-81
2022/03/10 10:31:21;;;;;;;6.55;4.22;;;17.80;42.50;;;;;;4930559;29;20551;-80
2022/03/10 10:34:24;;;;;;;7.50;4.30;;;19.80;43.80;;;;;;4948229;29;20043;-84
2022/03/10 10:36:55;;;;;;;7.60;4.15;;;18.90;43.10;;;;;;4855861;29;20041;-83
2022/03/10 10:39:30;;;;;;;9.05;4.30;;;18.90;43.10;;;;;;4890797;29;20075;-82
2022/03/10 10:42:01;;;;;;;11.23;4.65;;;18.90;43.10;;;;;;4921433;29;20146;-80
2022/03/10 10:44:27;;;;;;;8.40;3.92;;;19.00;43.10;;;;;;4928590;29;20138;-82
2022/03/10 10:46:58;;;;;;;8.27;4.60;;;19.00;43.00;;;;;;4884566;29;20047;-82
2022/03/10 10:49:24;;;;;;;13.48;5.35;;;19.70;43.40;;;;;;4927124;29;20059;-81
2022/03/10 10:51:54;;;;;;;14.88;6.85;;;19.10;43.00;;;;;;4927349;29;20050;-80
2022/03/10 10:54:23;;;;;;;14.57;7.00;;;19.10;43.00;;;;;;4929049;29;20107;-80
2022/03/10 10:56:56;;;;;;;19.27;8.35;;;19.10;43.00;;;;;;4934712;29;20051;-80
2022/03/10 10:59:45;;;;;;;23.67;10.38;;;19.10;43.00;;;;;;4931422;29;20051;-82
2022/03/10 11:02:16;;;;;;;22.25;9.65;;;19.10;43.00;;;;;;4880006;29;20074;-81
2022/03/10 11:04:43;;;;;;;19.73;9.43;;;19.20;43.20;;;;;;4930343;29;20062;-82
2022/03/10 11:07:13;;;;;;;23.70;8.95;;;19.20;43.20;;;;;;4950142;29;20118;-82
2022/03/10 11:09:54;;;;;;;23.88;8.52;;;19.20;43.30;;;;;;4932948;29;20558;-86
2022/03/10 11:12:26;;;;;;;19.05;8.38;;;20.10;43.80;;;;;;4934454;29;20082;-86
2022/03/10 11:31:47;;;;;;;15.32;6.82;;;19.40;43.30;;;;;;5038630;23;20541;-84
2022/03/10 11:34:47;;;;;;;14.00;5.90;;;21.10;44.70;;;;;;5167451;23;20043;-90
2022/03/10 12:16:50;;;;;;;8.88;3.90;;;19.70;43.10;;;;;;4947223;29;20059;-90
2022/03/10 12:19:44;;;;;;;9.43;4.28;;;19.80;43.10;;;;;;4905363;29;20071;-88
2022/03/10 12:24:53;;;;;;;8.48;3.90;;;19.80;43.20;;;;;;5795105;23;20411;-89
2022/03/10 12:27:23;;;;;;;9.07;3.88;;;20.60;43.60;;;;;;4910203;29;20055;-89
2022/03/10 12:29:49;;;;;;;9.68;3.53;;;19.80;43.10;;;;;;4938849;29;20479;-89
2022/03/10 12:32:15;;;;;;;8.65;3.63;;;21.20;43.90;;;;;;4906621;29;20059;-89
2022/03/10 12:34:40;;;;;;;9.35;3.70;;;19.80;43.10;;;;;;4911355;29;20121;-90
2022/03/10 12:50:59;;;;;;;8.68;3.28;;;20.20;43.20;;;;;;4941339;29;20091;-89
2022/03/10 12:57:05;;;;;;;7.53;3.40;;;19.90;43.00;;;;;;4991846;23;20055;-89
2022/03/10 12:59:33;;;;;;;7.93;2.55;;;19.70;42.90;;;;;;5039862;23;20142;-90
2022/03/10 13:05:27;;;;;;;8.73;3.42;;;19.90;43.00;;;;;;4951236;29;20566;-89
2022/03/10 13:08:06;;;;;;;7.88;3.25;;;21.20;43.70;;;;;;4936606;29;20039;-89
2022/03/10 13:10:38;;;;;;;7.95;3.33;;;20.00;43.00;;;;;;4940889;29;20043;-90
2022/03/10 13:13:07;;;;;;;6.63;3.08;;;20.00;43.10;;;;;;4955582;29;20085;-88
2022/03/10 13:15:37;;;;;;;8.40;2.97;;;20.00;43.00;;;;;;4927464;29;20051;-82
2022/03/10 13:18:10;;;;;;;9.40;5.38;;;20.00;43.00;;;;;;4934484;29;20047;-83
2022/03/10 13:20:41;;;;;;;11.23;6.72;;;20.00;42.40;;;;;;4923237;29;20084;-83
2022/03/10 13:23:10;;;;;;;10.73;6.50;;;19.90;42.00;;;;;;4934499;29;20054;-83
2022/03/10 13:26:06;;;;;;;12.45;6.30;;;20.60;42.20;;;;;;4921238;29;20062;-81
2022/03/10 13:29:12;;;;;;;8.82;5.50;;;21.40;43.00;;;;;;4918794;29;20051;-83
2022/03/10 13:31:45;;;;;;;10.25;5.55;;;19.10;41.60;;;;;;4920062;29;20044;-83
2022/03/10 13:34:11;;;;;;;8.68;5.47;;;17.90;41.60;;;;;;4929996;29;20063;-83
2022/03/10 13:36:46;;;;;;;8.15;4.47;;;20.80;42.80;;;;;;4927987;29;20056;-82
2022/03/10 13:39:41;;;;;;;8.38;4.80;;;19.80;42.80;;;;;;4894997;29;20086;-85
2022/03/10 14:14:07;;;;;;;38.47;16.05;;;18.80;42.90;;;;;;4912889;29;20043;-86
2022/03/10 14:17:17;;;;;;;34.55;15.02;;;19.90;43.50;;;;;;4865094;29;20103;-85
2022/03/10 14:20:04;;;;;;;34.00;15.25;;;20.00;43.60;;;;;;4912227;29;20060;-88
2022/03/10 14:22:45;;;;;;;44.72;19.30;;;19.30;43.30;;;;;;4890805;29;20525;-83
2022/03/10 14:25:14;;;;;;;85.97;32.75;;;21.60;44.80;;;;;;4862311;29;20091;-84
2022/03/10 14:39:10;;;;;;;106.60;41.92;;;19.80;43.80;;;;;;4909237;29;20099;-84
2022/03/10 14:46:11;;;;;;;100.18;37.47;;;20.10;44.50;;;;;;4836499;29;20065;-84
2022/03/10 14:58:47;;;;;;;90.20;35.25;;;20.10;44.20;;;;;;5121179;23;20074;-85
2022/03/10 15:01:33;;;;;;;74.18;29.65;;;20.90;44.70;;;;;;4950463;29;20464;-85
2022/03/10 15:04:14;;;;;;;58.83;26.52;;;20.70;44.60;;;;;;4935087;29;20051;-86
2022/03/10 15:06:46;;;;;;;49.25;22.98;;;20.10;42.70;;;;;;4934268;29;20035;-85
2022/03/10 15:09:11;;;;;;;46.97;21.13;;;19.70;41.40;;;;;;4925142;29;20048;-85
2022/03/10 15:11:52;;;;;;;36.47;19.48;;;18.10;39.70;;;;;;4948857;29;20070;-87
2022/03/10 15:14:18;;;;;;;41.95;20.35;;;21.70;41.00;;;;;;4915326;29;20054;-84
2022/03/10 15:20:11;;;;;;;53.58;22.83;;;21.00;41.90;;;;;;4914994;29;20143;-83
2022/03/10 15:25:49;;;;;;;50.78;21.60;;;21.20;42.50;;;;;;4873935;29;20059;-84
2022/03/10 15:28:37;;;;;;;47.45;20.40;;;21.10;43.10;;;;;;4883698;29;20060;-83
2022/03/10 15:31:37;;;;;;;41.47;19.67;;;21.20;42.90;;;;;;4843919;29;20060;-83
2022/03/10 15:34:15;;;;;;;44.58;19.77;;;19.80;42.10;;;;;;4876124;29;20063;-83
2022/03/10 15:36:56;;;;;;;43.30;18.30;;;18.80;42.30;;;;;;4870653;29;20195;-82
2022/03/10 15:39:25;;;;;;;36.20;17.02;;;20.10;42.10;;;;;;4847783;29;20136;-86
2022/03/10 15:42:33;;;;;;;28.75;14.45;;;20.10;42.80;;;;;;4864317;29;20072;-86
2022/03/10 15:45:27;;;;;;;30.48;14.80;;;19.80;42.40;;;;;;5068675;23;20052;-84
2022/03/10 15:48:18;;;;;;;29.13;13.55;;;20.30;42.70;;;;;;4923021;29;20044;-86
2022/03/10 16:01:52;;;;;;;25.50;11.55;;;20.10;42.60;;;;;;4955900;29;20194;-89
2022/03/10 16:08:25;;;;;;;23.77;10.90;;;20.40;42.80;;;;;;4918162;29;20761;-88
2022/03/10 16:32:55;;;;;;;17.23;8.18;;;20.50;43.00;;;;;;4820260;29;20145;-89
2022/03/10 16:45:38;;;;;;;16.52;7.35;;;20.20;42.90;;;;;;5085643;23;20129;-86
2022/03/10 17:04:12;;;;;;;;;;;20.50;43.20;;;;;;4895817;29;20092;-87
2022/03/10 17:27:35;;;;;;;13.70;6.28;;;19.50;43.00;;;;;;4953037;29;20063;-89
2022/03/10 17:30:59;;;;;;;14.85;6.50;;;20.10;43.30;;;;;;4928548;29;20484;-87
2022/03/10 17:41:18;;;;;;;11.55;5.25;;;20.50;43.60;;;;;;4934583;29;20114;-89
2022/03/10 18:02:03;;;;;;;10.13;4.95;;;20.40;43.90;;;;;;5127901;23;20129;-86
2022/03/10 18:14:40;;;;;;;11.27;4.55;;;20.10;44.10;;;;;;4913363;29;20107;-88
2022/03/10 18:41:19;;;;;;;9.27;3.58;;;20.40;44.20;;;;;;5376099;23;20122;-89
2022/03/10 18:43:44;;;;;;;7.60;3.92;;;20.40;44.30;;;;;;4929309;29;20118;-89
2022/03/10 18:46:10;;;;;;;8.55;3.80;;;20.40;44.10;;;;;;4931951;29;20476;-89
2022/03/10 18:48:37;;;;;;;9.05;3.90;;;20.50;44.20;;;;;;4930636;29;20046;-89
2022/03/10 19:20:37;;;;;;;7.50;3.47;;;20.30;45.00;;;;;;4937129;29;20919;-86
2022/03/10 19:35:20;;;;;;;8.77;2.97;;;21.90;46.00;;;;;;4829231;29;20707;-87
2022/03/10 19:41:36;;;;;;;6.00;2.90;;;20.10;44.70;;;;;;4767427;30;20093;-87
2022/03/10 19:45:07;;;;;;;7.63;3.00;;;20.50;45.10;;;;;;4780168;30;20054;-87
2022/03/10 19:48:07;;;;;;;8.23;2.73;;;20.10;44.60;;;;;;4785471;30;20055;-87
2022/03/10 21:04:46;;;;;;;4.95;1.70;;;19.70;44.70;;;;;;4856627;29;20064;-87
2022/03/10 21:20:25;;;;;;;5.10;2.03;;;20.30;45.00;;;;;;5263185;23;20036;-90
2022/03/10 21:25:39;;;;;;;4.63;1.77;;;20.30;45.20;;;;;;4962095;23;20051;-84
2022/03/10 21:35:43;;;;;;;3.83;1.48;;;20.60;45.20;;;;;;4913533;29;20090;-87
2022/03/10 21:44:24;;;;;;;3.70;1.85;;;20.30;45.10;;;;;;4933307;29;20055;-89
2022/03/10 21:46:49;;;;;;;3.45;1.40;;;20.20;45.00;;;;;;4916615;29;20044;-87
2022/03/10 21:49:15;;;;;;;3.30;1.50;;;20.50;45.10;;;;;;4903954;29;20048;-84
2022/03/10 21:52:14;;;;;;;4.35;1.90;;;20.20;44.90;;;;;;4917340;29;20411;-85
2022/03/10 21:59:10;;;;;;;9.15;1.55;;;20.30;45.40;;;;;;4789575;29;20114;-86
2022/03/10 22:04:58;;;;;;;3.60;1.50;;;20.20;44.80;;;;;;4950099;23;20085;-87
2022/03/10 22:14:46;;;;;;;3.85;1.50;;;19.30;44.40;;;;;;4952696;29;20070;-83
2022/03/10 22:17:11;;;;;;;3.45;1.50;;;20.70;45.80;;;;;;4952901;29;20047;-83
2022/03/10 22:19:47;;;;;;;5.00;1.67;;;19.80;44.90;;;;;;4935476;29;20054;-83
2022/03/10 22:22:13;;;;;;;3.78;1.30;;;20.00;45.40;;;;;;4918953;29;20055;-86
2022/03/10 22:25:34;;;;;;;4.00;1.58;;;21.20;45.70;;;;;;4935561;29;20046;-86
2022/03/10 22:41:29;;;;;;;3.80;1.35;;;19.10;44.60;;;;;;4931862;29;20118;-88
2022/03/10 22:48:10;;;;;;;3.35;1.42;;;21.50;46.20;;;;;;4877024;29;20177;-87
2022/03/10 23:11:27;;;;;;;2.83;1.15;;;20.00;45.30;;;;;;4932642;29;20103;-87
2022/03/10 23:14:17;;;;;;;3.72;1.30;;;21.30;46.40;;;;;;4916125;29;20071;-86
2022/03/10 23:23:35;;;;;;;3.63;1.52;;;20.90;46.10;;;;;;4767724;30;20109;-86
2022/03/10 23:26:30;;;;;;;4.03;1.20;;;19.80;46.10;;;;;;4763723;30;20505;-87
2022/03/10 23:28:56;;;;;;;4.10;1.42;;;19.70;45.30;;;;;;5091973;23;20467;-87
2022/03/10 23:31:24;;;;;;;3.25;1.25;;;19.80;45.40;;;;;;4934980;29;20047;-87
2022/03/10 23:35:07;;;;;;;;;;;;;;;;;;;;;
2022/03/10 23:47:50;;;;;;;2.75;1.20;;;19.80;45.50;;;;;;5652247;23;20513;-86
2022/03/10 23:50:18;;;;;;;2.60;1.13;;;19.80;45.50;;;;;;4934892;29;20047;-88